Pelican Narrows, Canada
Current Conditions -  °F | °C
As of 11:00 AM on Friday 31 Oct 2014 (Local Time) from CYVC Reporting Station
Overcast Overcast  
Wind Chill: 19°   Ceiling: 8000
Heat Index: 30°   Visibility: 15mi
Dew Point: 25°   Wind: 16mph
Humidity: 80%   Direction: 150°SSE
Pressure: 29.95"   Gusts: 23mph
Location:  55.17°N, 102.95°W
Report Text: CYVC 311700Z 15014G20KT 15SM BKN080 OVC250 M01/M04 A2995 RMK AC7CI1 SLP165
Loading
Personal Weather Stations






























Interactive Weather Map
Tropical Storm Tracking
New forecast layout! Learn more

10-Day Weather Forecast

Advertisements
Track Severe Weather on mobile